Time;durP1;ratioP1;P1;durP2;ratioP2;P2;SDS_P1;SDS_P2;PMS_P1;PMS_P2;Temp;Humidity;BMP_temperature;BMP_pressure;BME280_temperature;BME280_humidity;BME280_pressure;Samples;Min_cycle;Max_cycle;Signal;HPM_P1;HPM_P2
2023/02/23 00:01:50;;;;;;;29.17;19.40;;;;;12.00;98174.00;;;;5052735;28;20098;-66
2023/02/23 00:04:17;;;;;;;27.67;19.45;;;;;12.00;98172.00;;;;5052695;28;20386;-67
2023/02/23 00:06:44;;;;;;;26.48;18.77;;;;;12.00;98170.00;;;;5051542;28;20052;-67
2023/02/23 00:09:21;;;;;;;27.00;17.88;;;;;12.00;98174.00;;;;5052626;28;20041;-66
2023/02/23 00:11:56;;;;;;;25.45;17.25;;;;;12.00;98170.00;;;;5051471;28;20049;-67
2023/02/23 00:14:27;;;;;;;27.05;17.27;;;;;12.00;98163.00;;;;5052323;28;20552;-67
2023/02/23 00:16:55;;;;;;;24.00;16.95;;;;;12.00;98167.00;;;;5052628;28;20110;-64
2023/02/23 00:19:23;;;;;;;27.50;17.27;;;;;12.00;98173.00;;;;5051430;28;20064;-67
2023/02/23 00:21:53;;;;;;;24.00;16.63;;;;;12.00;98156.00;;;;5051175;28;20486;-67
2023/02/23 00:24:20;;;;;;;25.33;16.27;;;;;12.10;98160.00;;;;5051961;28;20064;-65
2023/02/23 00:26:50;;;;;;;24.65;17.65;;;;;12.10;98164.00;;;;5052118;28;20049;-67
2023/02/23 00:29:19;;;;;;;22.55;15.35;;;;;12.10;98161.00;;;;5062648;28;20032;-66
2023/02/23 00:31:48;;;;;;;22.52;15.55;;;;;12.10;98154.00;;;;5062364;28;20067;-67
2023/02/23 00:34:19;;;;;;;23.42;15.57;;;;;12.10;98160.00;;;;5052064;28;20045;-66
2023/02/23 00:36:54;;;;;;;21.40;14.88;;;;;12.00;98154.00;;;;5051053;28;20041;-68
2023/02/23 00:39:25;;;;;;;21.58;15.10;;;;;12.10;98154.00;;;;5051005;28;20048;-67
2023/02/23 00:41:54;;;;;;;22.27;14.88;;;;;12.10;98158.00;;;;5052187;28;20037;-67
2023/02/23 00:44:22;;;;;;;22.83;15.93;;;;;12.10;98162.00;;;;5050598;28;20049;-68
2023/02/23 00:46:50;;;;;;;24.67;15.57;;;;;12.10;98158.00;;;;5052381;28;20053;-65
2023/02/23 00:49:19;;;;;;;21.35;15.18;;;;;12.10;98152.00;;;;5050652;28;20041;-67
2023/02/23 00:51:46;;;;;;;23.58;15.32;;;;;12.10;98152.00;;;;5051857;28;20525;-67
2023/02/23 00:54:14;;;;;;;23.33;14.95;;;;;12.10;98156.00;;;;5050463;28;20048;-67
2023/02/23 00:56:41;;;;;;;24.02;15.85;;;;;12.10;98156.00;;;;5052020;28;20040;-67
2023/02/23 00:59:08;;;;;;;27.27;15.10;;;;;12.10;98141.00;;;;5053998;28;20135;-66
2023/02/23 01:01:36;;;;;;;23.63;15.02;;;;;12.00;98154.00;;;;5054794;28;20052;-67
2023/02/23 01:04:03;;;;;;;23.73;15.43;;;;;12.10;98156.00;;;;5055849;28;20040;-67
2023/02/23 01:06:30;;;;;;;22.30;15.23;;;;;12.10;98153.00;;;;5055718;28;20677;-68
2023/02/23 01:08:56;;;;;;;24.98;15.98;;;;;12.00;98158.00;;;;5055743;28;20041;-68
2023/02/23 01:11:29;;;;;;;23.17;15.93;;;;;12.00;98155.00;;;;5055799;28;20041;-67
2023/02/23 01:13:57;;;;;;;22.95;15.23;;;;;12.00;98158.00;;;;5054827;28;20053;-68
2023/02/23 01:16:28;;;;;;;21.90;15.02;;;;;12.00;98149.00;;;;5054487;28;20048;-67
2023/02/23 01:18:57;;;;;;;24.58;15.02;;;;;12.00;98155.00;;;;5054334;28;20060;-67
2023/02/23 01:21:27;;;;;;;23.15;15.38;;;;;12.00;98148.00;;;;5055522;28;20103;-64
2023/02/23 01:23:54;;;;;;;21.77;14.52;;;;;12.00;98158.00;;;;5055442;28;20492;-66
2023/02/23 01:26:32;;;;;;;22.17;15.10;;;;;12.00;98158.00;;;;5055311;28;20056;-63
2023/02/23 01:29:20;;;;;;;20.58;15.63;;;;;12.00;98153.00;;;;5054851;28;20136;-66
2023/02/23 01:31:49;;;;;;;20.92;14.13;;;;;12.10;98156.00;;;;5056205;28;20090;-66
2023/02/23 01:34:18;;;;;;;21.95;15.45;;;;;12.10;98152.00;;;;5055972;28;20045;-64
2023/02/23 01:36:44;;;;;;;19.83;14.60;;;;;12.10;98147.00;;;;5054425;28;20082;-64
2023/02/23 01:39:14;;;;;;;21.83;15.70;;;;;12.10;98148.00;;;;5054055;28;20041;-64
2023/02/23 01:41:41;;;;;;;21.80;14.80;;;;;12.10;98142.00;;;;5055551;28;20045;-63
2023/02/23 01:44:13;;;;;;;22.60;15.18;;;;;12.10;98137.00;;;;5055822;28;20037;-64
2023/02/23 01:46:45;;;;;;;20.88;14.32;;;;;12.10;98150.00;;;;5054735;28;20057;-62
2023/02/23 01:49:24;;;;;;;20.75;14.23;;;;;12.10;98150.00;;;;5054230;28;20037;-62
2023/02/23 01:51:59;;;;;;;20.52;13.82;;;;;12.10;98150.00;;;;5054078;28;20090;-62
2023/02/23 01:54:31;;;;;;;19.42;13.95;;;;;12.10;98146.00;;;;5054819;28;20152;-65
2023/02/23 01:57:00;;;;;;;19.70;14.27;;;;;12.10;98140.00;;;;5055158;28;20428;-63
2023/02/23 01:59:36;;;;;;;19.67;13.60;;;;;12.10;98134.00;;;;5053904;28;20052;-62
2023/02/23 02:02:04;;;;;;;19.05;13.70;;;;;12.10;98142.00;;;;5053864;28;20053;-62
2023/02/23 02:04:42;;;;;;;20.02;13.52;;;;;12.20;98141.00;;;;5053452;28;20086;-63
2023/02/23 02:07:16;;;;;;;19.90;14.00;;;;;12.10;98147.00;;;;5053738;28;20041;-65
2023/02/23 02:10:38;;;;;;;18.83;13.93;;;;;12.10;98137.00;;;;5053799;28;20071;-62
2023/02/23 02:12:44;;;;;;;22.58;14.75;;;;;12.10;98143.00;;;;5041729;28;20044;-64
2023/02/23 02:15:16;;;;;;;21.83;13.85;;;;;12.10;98137.00;;;;5054590;28;20056;-63
2023/02/23 02:18:08;;;;;;;23.65;14.88;;;;;12.20;98140.00;;;;5054973;28;20049;-62
2023/02/23 02:21:03;;;;;;;19.55;13.75;;;;;12.10;98132.00;;;;5053664;28;20041;-63
2023/02/23 02:23:57;;;;;;;19.83;12.97;;;;;12.00;98134.00;;;;5054848;28;20053;-63
2023/02/23 02:26:52;;;;;;;18.73;13.07;;;;;12.00;98130.00;;;;5053210;28;20091;-63
2023/02/23 02:29:54;;;;;;;18.10;11.43;;;;;11.90;98126.00;;;;5054542;28;20033;-63
2023/02/23 02:32:54;;;;;;;18.10;12.35;;;;;12.00;98126.00;;;;5053331;28;20055;-62
2023/02/23 02:35:36;;;;;;;14.40;11.48;;;;;11.90;98122.00;;;;5054148;28;20049;-63
2023/02/23 02:38:36;;;;;;;17.70;11.95;;;;;11.90;98121.00;;;;5054690;28;20083;-63
2023/02/23 02:41:21;;;;;;;18.02;11.65;;;;;11.90;98118.00;;;;5031465;28;20127;-63
2023/02/23 02:44:10;;;;;;;16.65;11.75;;;;;11.90;98119.00;;;;5053187;28;20052;-62
2023/02/23 02:46:46;;;;;;;15.93;11.07;;;;;11.90;98113.00;;;;5053028;28;20045;-63
2023/02/23 02:49:25;;;;;;;18.35;10.98;;;;;11.90;98117.00;;;;5054566;28;20039;-61
2023/02/23 02:51:59;;;;;;;14.02;10.65;;;;;11.90;98113.00;;;;5054416;28;20041;-62
2023/02/23 02:54:38;;;;;;;15.13;10.27;;;;;11.90;98111.00;;;;5052750;28;20041;-62
2023/02/23 02:57:06;;;;;;;14.88;10.48;;;;;11.80;98114.00;;;;5052733;28;20525;-65
2023/02/23 04:18:12;;;;;;;18.70;12.50;;;;;11.90;98126.00;;;;5055215;28;20517;-71
2023/02/23 04:20:38;;;;;;;16.60;12.82;;;;;11.90;98128.00;;;;5054774;28;20043;-66
2023/02/23 04:23:05;;;;;;;20.23;14.25;;;;;11.90;98128.00;;;;5054916;28;20045;-65
2023/02/23 04:25:31;;;;;;;17.67;13.57;;;;;11.80;98131.00;;;;5052854;28;20059;-68
2023/02/23 04:27:58;;;;;;;19.02;14.27;;;;;11.70;98127.00;;;;5053559;28;20037;-68
2023/02/23 04:30:27;;;;;;;21.63;15.18;;;;;11.60;98133.00;;;;5053791;28;20509;-67
2023/02/23 04:32:54;;;;;;;19.55;13.77;;;;;11.60;98135.00;;;;5054168;28;20133;-67
2023/02/23 04:35:21;;;;;;;22.02;14.68;;;;;11.60;98142.00;;;;5053635;28;20509;-67
2023/02/23 04:37:47;;;;;;;20.25;14.85;;;;;11.60;98139.00;;;;5055132;28;20079;-65
2023/02/23 04:40:14;;;;;;;20.30;14.48;;;;;11.60;98144.00;;;;5056527;28;20037;-66
2023/02/23 04:42:41;;;;;;;21.65;14.90;;;;;11.60;98138.00;;;;5054529;28;20056;-66
2023/02/23 04:45:08;;;;;;;21.67;15.27;;;;;11.60;98146.00;;;;5054149;28;20052;-66
2023/02/23 04:47:35;;;;;;;21.85;15.43;;;;;11.60;98140.00;;;;5059221;28;20051;-67
2023/02/23 04:50:02;;;;;;;23.42;16.20;;;;;11.60;98150.00;;;;5059746;28;20184;-67
2023/02/23 04:52:28;;;;;;;22.75;15.77;;;;;11.60;98155.00;;;;5061594;28;20041;-67
2023/02/23 04:54:55;;;;;;;25.42;16.73;;;;;11.60;98147.00;;;;5061246;28;20046;-66
2023/02/23 04:57:21;;;;;;;25.30;17.35;;;;;11.60;98156.00;;;;5061948;28;20052;-67
2023/02/23 04:59:48;;;;;;;25.33;16.58;;;;;11.50;98157.00;;;;5060589;28;20037;-68
2023/02/23 05:02:14;;;;;;;25.95;17.10;;;;;11.50;98154.00;;;;5056605;28;20044;-66
2023/02/23 05:04:41;;;;;;;25.23;17.75;;;;;11.50;98143.00;;;;5052130;28;20042;-67
2023/02/23 05:07:07;;;;;;;23.08;16.48;;;;;11.50;98151.00;;;;5051304;28;20049;-67
2023/02/23 05:09:34;;;;;;;27.48;17.77;;;;;11.50;98150.00;;;;5052730;28;20045;-68
2023/02/23 05:12:01;;;;;;;26.13;17.77;;;;;11.50;98147.00;;;;5052646;28;20052;-65
2023/02/23 05:14:27;;;;;;;28.52;19.35;;;;;11.40;98137.00;;;;5051999;28;20041;-67
2023/02/23 05:16:54;;;;;;;26.50;18.17;;;;;11.50;98147.00;;;;5051278;28;20044;-67
2023/02/23 05:19:20;;;;;;;26.70;16.73;;;;;11.40;98150.00;;;;5052482;28;20122;-68
2023/02/23 05:21:49;;;;;;;29.02;17.83;;;;;11.50;98139.00;;;;5052263;28;20053;-66
2023/02/23 05:24:17;;;;;;;29.20;17.83;;;;;11.50;98141.00;;;;5050755;28;20044;-68
2023/02/23 05:26:44;;;;;;;24.50;16.90;;;;;11.60;98141.00;;;;5052399;28;20048;-67
2023/02/23 05:29:11;;;;;;;28.05;18.25;;;;;11.60;98138.00;;;;5053134;28;20095;-68
2023/02/23 05:31:37;;;;;;;29.25;18.05;;;;;11.60;98142.00;;;;5051910;28;20045;-67
2023/02/23 05:34:04;;;;;;;24.98;17.08;;;;;11.60;98133.00;;;;5053010;28;20045;-66
2023/02/23 05:36:31;;;;;;;27.30;18.25;;;;;11.70;98138.00;;;;5052332;28;20056;-68
2023/02/23 05:38:57;;;;;;;25.63;17.85;;;;;11.70;98149.00;;;;5052910;28;20033;-66
2023/02/23 05:41:24;;;;;;;24.08;17.02;;;;;11.70;98129.00;;;;5052290;28;20095;-66
2023/02/23 05:43:51;;;;;;;24.30;16.60;;;;;11.70;98139.00;;;;5052987;28;20456;-68
2023/02/23 05:46:21;;;;;;;26.27;17.67;;;;;11.80;98133.00;;;;5055894;28;20044;-64
2023/02/23 05:48:47;;;;;;;28.50;18.30;;;;;11.80;98137.00;;;;5055663;28;20045;-68
2023/02/23 05:51:15;;;;;;;33.88;20.45;;;;;11.70;98140.00;;;;5055981;28;20124;-66
2023/02/23 05:53:43;;;;;;;28.27;17.83;;;;;11.70;98142.00;;;;5056064;28;20116;-66
2023/02/23 05:56:13;;;;;;;28.02;18.65;;;;;11.70;98145.00;;;;5055213;28;20405;-65
2023/02/23 05:58:39;;;;;;;24.95;16.73;;;;;11.70;98135.00;;;;5055468;28;20405;-66
2023/02/23 06:01:06;;;;;;;29.23;17.67;;;;;11.60;98145.00;;;;5055227;28;20045;-67
2023/02/23 06:03:32;;;;;;;25.83;17.98;;;;;11.60;98142.00;;;;5055128;28;20053;-65
2023/02/23 06:05:59;;;;;;;31.48;18.38;;;;;11.50;98146.00;;;;5053395;28;20128;-66
2023/02/23 06:08:26;;;;;;;29.67;18.55;;;;;11.50;98147.00;;;;5053478;28;20076;-67
2023/02/23 06:10:52;;;;;;;26.23;17.20;;;;;11.40;98142.00;;;;5053628;28;20037;-64
2023/02/23 06:13:20;;;;;;;26.13;17.60;;;;;11.30;98149.00;;;;5054946;28;20452;-66
2023/02/23 06:15:48;;;;;;;26.52;17.70;;;;;11.30;98151.00;;;;5054536;28;20459;-65
2023/02/23 06:18:16;;;;;;;28.10;18.13;;;;;11.20;98146.00;;;;5053356;28;20099;-65
2023/02/23 06:20:44;;;;;;;29.00;18.45;;;;;11.20;98151.00;;;;5054713;28;20063;-65
2023/02/23 06:23:12;;;;;;;25.90;18.60;;;;;11.10;98155.00;;;;5054857;28;20041;-65
2023/02/23 06:25:39;;;;;;;28.73;18.50;;;;;11.10;98153.00;;;;5054318;28;20131;-66
2023/02/23 06:28:07;;;;;;;33.30;21.00;;;;;11.10;98164.00;;;;5054956;28;20098;-68
2023/02/23 06:30:35;;;;;;;30.00;18.73;;;;;11.10;98157.00;;;;5054062;28;20045;-66
2023/02/23 06:33:01;;;;;;;30.55;19.55;;;;;11.00;98151.00;;;;5055377;28;20049;-65
2023/02/23 06:35:29;;;;;;;30.55;19.33;;;;;11.00;98152.00;;;;5053466;28;20053;-64
2023/02/23 06:37:56;;;;;;;29.27;18.70;;;;;11.00;98156.00;;;;5053659;28;20091;-64
2023/02/23 06:40:23;;;;;;;31.98;19.67;;;;;11.10;98158.00;;;;5054786;28;20048;-65
2023/02/23 06:42:50;;;;;;;29.83;19.63;;;;;11.00;98158.00;;;;5054759;28;20045;-64
2023/02/23 06:45:18;;;;;;;30.48;19.38;;;;;11.00;98161.00;;;;5054349;28;20049;-65
2023/02/23 06:47:46;;;;;;;28.30;20.00;;;;;11.00;98168.00;;;;5054541;28;20041;-65
2023/02/23 06:50:13;;;;;;;30.15;19.30;;;;;11.10;98169.00;;;;5053604;28;20041;-66
2023/02/23 06:52:40;;;;;;;32.78;19.83;;;;;11.00;98166.00;;;;5052911;28;20056;-66
2023/02/23 06:55:08;;;;;;;30.20;19.33;;;;;11.00;98169.00;;;;5053590;28;20045;-65
2023/02/23 06:57:35;;;;;;;27.73;19.42;;;;;11.00;98178.00;;;;5054391;28;20561;-65
2023/02/23 07:00:03;;;;;;;34.25;20.98;;;;;11.10;98182.00;;;;5054309;28;20053;-65
2023/02/23 07:02:30;;;;;;;35.47;22.52;;;;;11.10;98188.00;;;;5052892;28;20049;-66
2023/02/23 07:04:57;;;;;;;35.72;22.08;;;;;11.10;98190.00;;;;5052899;28;20052;-64
2023/02/23 07:07:24;;;;;;;35.85;22.13;;;;;11.10;98191.00;;;;5072395;28;20051;-66
2023/02/23 07:09:51;;;;;;;36.08;20.98;;;;;11.20;98195.00;;;;5072820;28;20033;-64
2023/02/23 07:12:17;;;;;;;32.00;20.10;;;;;11.20;98195.00;;;;5072847;28;20045;-63
2023/02/23 07:14:44;;;;;;;33.85;19.60;;;;;11.20;98201.00;;;;5072383;28;20052;-64
2023/02/23 07:17:10;;;;;;;31.13;18.77;;;;;11.30;98212.00;;;;5073647;28;20044;-66
2023/02/23 07:19:38;;;;;;;29.52;19.10;;;;;11.30;98207.00;;;;5073665;28;20421;-65
2023/02/23 07:22:04;;;;;;;30.58;19.25;;;;;11.30;98207.00;;;;5073339;28;20045;-65
2023/02/23 07:24:31;;;;;;;38.03;20.00;;;;;11.30;98209.00;;;;5072872;28;20048;-64
2023/02/23 07:26:58;;;;;;;36.35;19.52;;;;;11.40;98218.00;;;;5073374;28;20052;-64
2023/02/23 07:29:26;;;;;;;42.83;21.27;;;;;11.40;98208.00;;;;5073124;28;20115;-64
2023/02/23 07:31:53;;;;;;;35.38;19.52;;;;;11.40;98225.00;;;;5073082;28;20123;-64
2023/02/23 07:34:20;;;;;;;35.00;20.35;;;;;11.50;98225.00;;;;5072894;28;20051;-64
2023/02/23 07:36:47;;;;;;;33.33;19.42;;;;;11.50;98221.00;;;;5073017;28;20040;-67
2023/02/23 07:39:16;;;;;;;31.70;19.67;;;;;11.50;98218.00;;;;5072206;28;20049;-67
2023/02/23 07:41:43;;;;;;;37.58;20.23;;;;;11.60;98222.00;;;;5073383;28;20123;-67
2023/02/23 07:44:17;;;;;;;34.65;20.23;;;;;11.70;98223.00;;;;5072126;28;20062;-68
2023/02/23 07:46:45;;;;;;;35.20;20.42;;;;;11.70;98220.00;;;;5073764;28;20045;-68
2023/02/23 07:49:14;;;;;;;35.28;20.60;;;;;11.70;98217.00;;;;5073793;28;20044;-68
2023/02/23 07:51:41;;;;;;;35.90;22.00;;;;;11.70;98221.00;;;;5071917;28;20497;-69
2023/02/23 07:54:08;;;;;;;36.40;22.63;;;;;11.80;98213.00;;;;5072809;28;20052;-67
2023/02/23 07:56:34;;;;;;;39.78;23.35;;;;;11.70;98221.00;;;;5072852;28;20044;-67
2023/02/23 07:59:01;;;;;;;38.05;23.65;;;;;11.80;98228.00;;;;5073382;28;20044;-61
2023/02/23 08:01:28;;;;;;;39.72;22.60;;;;;11.70;98232.00;;;;5073015;28;20045;-65
2023/02/23 08:03:54;;;;;;;39.42;24.20;;;;;11.80;98229.00;;;;5073171;28;20083;-63
2023/02/23 08:06:21;;;;;;;40.60;25.10;;;;;11.80;98232.00;;;;5072664;28;20037;-65
2023/02/23 08:08:48;;;;;;;39.25;24.17;;;;;11.90;98236.00;;;;5072105;28;20044;-65
2023/02/23 08:11:14;;;;;;;40.38;24.52;;;;;11.90;98234.00;;;;5071288;28;20124;-65
2023/02/23 08:13:41;;;;;;;41.63;25.50;;;;;12.00;98247.00;;;;5053585;28;20494;-65
2023/02/23 08:16:07;;;;;;;40.85;25.27;;;;;11.90;98241.00;;;;5058384;28;20102;-65
2023/02/23 08:18:34;;;;;;;48.72;24.48;;;;;11.90;98243.00;;;;5060863;28;20064;-65
2023/02/23 08:21:02;;;;;;;42.88;24.23;;;;;11.90;98247.00;;;;5057148;28;20041;-65
2023/02/23 08:23:33;;;;;;;41.17;24.70;;;;;11.90;98248.00;;;;5052707;28;20056;-65
2023/02/23 08:26:01;;;;;;;43.35;23.83;;;;;11.80;98250.00;;;;5052967;28;20102;-65
2023/02/23 08:28:28;;;;;;;37.80;22.40;;;;;11.80;98257.00;;;;5072309;28;20041;-66
2023/02/23 08:30:55;;;;;;;40.58;24.13;;;;;11.70;98244.00;;;;5072389;28;20098;-65
2023/02/23 08:33:22;;;;;;;41.92;25.30;;;;;11.70;98248.00;;;;5072644;28;20045;-66
2023/02/23 08:35:48;;;;;;;43.28;23.88;;;;;11.80;98244.00;;;;5071951;28;20094;-66
2023/02/23 08:38:17;;;;;;;35.55;22.60;;;;;11.90;98242.00;;;;5072066;28;20563;-65
2023/02/23 08:40:44;;;;;;;36.78;24.00;;;;;12.00;98248.00;;;;5066942;28;20036;-63
2023/02/23 08:43:10;;;;;;;41.47;24.05;;;;;12.10;98247.00;;;;5068766;28;20036;-62
2023/02/23 08:45:38;;;;;;;36.75;22.52;;;;;12.20;98248.00;;;;5069253;28;20048;-62
2023/02/23 08:48:07;;;;;;;41.88;23.33;;;;;12.20;98253.00;;;;5068371;28;20044;-61
2023/02/23 08:50:35;;;;;;;39.40;23.75;;;;;12.20;98249.00;;;;5068361;28;20048;-61
2023/02/23 08:53:04;;;;;;;37.85;22.65;;;;;12.10;98251.00;;;;5068170;28;20032;-61
2023/02/23 08:55:34;;;;;;;39.15;23.67;;;;;12.10;98260.00;;;;5067950;28;20053;-61
2023/02/23 08:58:02;;;;;;;42.55;23.83;;;;;12.10;98255.00;;;;5069847;28;20154;-61
2023/02/23 09:00:30;;;;;;;36.28;22.52;;;;;12.10;98250.00;;;;5068485;28;20086;-61
2023/02/23 09:02:58;;;;;;;35.17;22.40;;;;;12.10;98257.00;;;;5051660;28;20052;-62
2023/02/23 09:05:38;;;;;;;38.75;22.88;;;;;12.20;98259.00;;;;5069569;28;20068;-62
2023/02/23 09:08:06;;;;;;;37.65;21.88;;;;;12.20;98262.00;;;;5069725;28;20044;-61
2023/02/23 09:10:33;;;;;;;38.63;23.77;;;;;12.20;98261.00;;;;5068347;28;20398;-61
2023/02/23 09:13:01;;;;;;;35.58;22.25;;;;;12.20;98261.00;;;;5068340;28;20049;-61
2023/02/23 09:15:28;;;;;;;37.83;23.33;;;;;12.30;98264.00;;;;5070123;28;20047;-61
2023/02/23 09:17:59;;;;;;;40.55;22.58;;;;;12.40;98263.00;;;;5068562;28;20041;-60
2023/02/23 09:20:26;;;;;;;37.75;22.90;;;;;12.30;98266.00;;;;5074698;28;20502;-60
2023/02/23 09:22:52;;;;;;;38.97;23.02;;;;;12.30;98262.00;;;;5075587;28;20048;-61
2023/02/23 09:25:21;;;;;;;35.00;22.08;;;;;12.30;98269.00;;;;5074040;28;20449;-60
2023/02/23 09:27:50;;;;;;;38.30;23.50;;;;;12.20;98278.00;;;;5074349;28;20032;-60
2023/02/23 09:30:19;;;;;;;36.53;23.60;;;;;12.20;98274.00;;;;5072981;28;20044;-64
2023/02/23 09:32:47;;;;;;;34.72;22.52;;;;;12.20;98278.00;;;;5069493;28;20052;-62
2023/02/23 09:35:16;;;;;;;32.58;20.33;;;;;12.30;98272.00;;;;5068619;28;20420;-62
2023/02/23 09:37:47;;;;;;;36.15;22.48;;;;;12.40;98281.00;;;;5071017;28;20052;-62
2023/02/23 09:40:23;;;;;;;32.53;21.02;;;;;12.40;98281.00;;;;5073219;28;20044;-64
2023/02/23 09:43:11;;;;;;;38.45;23.73;;;;;12.40;98286.00;;;;5073000;28;20044;-64
2023/02/23 09:45:42;;;;;;;34.25;22.10;;;;;12.40;98289.00;;;;5072524;28;20501;-65
2023/02/23 09:48:15;;;;;;;37.92;23.30;;;;;12.40;98286.00;;;;5072966;28;20045;-64
2023/02/23 09:50:46;;;;;;;32.80;22.50;;;;;12.30;98286.00;;;;5071231;28;20045;-65
2023/02/23 09:53:22;;;;;;;35.50;22.92;;;;;12.40;98291.00;;;;5071756;28;20063;-64
2023/02/23 09:55:52;;;;;;;37.42;23.83;;;;;12.40;98286.00;;;;5072085;28;20036;-64
2023/02/23 09:58:28;;;;;;;38.20;22.95;;;;;12.50;98284.00;;;;5071513;28;20032;-64
2023/02/23 10:01:12;;;;;;;37.45;23.10;;;;;12.60;98284.00;;;;5071358;28;20047;-64
2023/02/23 10:03:49;;;;;;;37.25;23.98;;;;;12.60;98290.00;;;;5071163;28;20046;-65
2023/02/23 10:06:17;;;;;;;37.85;24.08;;;;;12.80;98300.00;;;;5072147;28;20055;-65
2023/02/23 10:08:57;;;;;;;39.60;24.50;;;;;13.00;98302.00;;;;5071334;28;20123;-65
2023/02/23 10:11:39;;;;;;;34.72;22.80;;;;;13.30;98296.00;;;;5071410;28;20040;-63
2023/02/23 10:14:44;;;;;;;38.00;25.75;;;;;13.50;98300.00;;;;5070630;28;20059;-65
2023/02/23 10:17:16;;;;;;;36.38;23.05;;;;;13.50;98310.00;;;;5072353;28;20036;-64
2023/02/23 10:19:56;;;;;;;36.20;22.92;;;;;13.60;98308.00;;;;5070347;28;20055;-65
2023/02/23 10:22:24;;;;;;;35.00;23.38;;;;;13.70;98310.00;;;;5072083;28;20405;-64
2023/02/23 10:24:51;;;;;;;34.38;23.17;;;;;13.70;98313.00;;;;5071198;28;20033;-65
2023/02/23 10:27:20;;;;;;;36.65;22.98;;;;;13.80;98303.00;;;;5070911;28;20115;-64
2023/02/23 10:29:50;;;;;;;35.58;22.55;;;;;13.90;98310.00;;;;5070171;28;20037;-64
2023/02/23 10:32:44;;;;;;;38.83;23.70;;;;;14.10;98311.00;;;;5071601;28;20147;-65
2023/02/23 10:35:14;;;;;;;35.17;23.23;;;;;14.10;98312.00;;;;5068620;28;20103;-65
2023/02/23 10:37:41;;;;;;;37.80;23.77;;;;;14.20;98315.00;;;;5072169;28;20385;-62
2023/02/23 10:40:16;;;;;;;35.15;23.05;;;;;14.30;98315.00;;;;5071355;28;20460;-64
2023/02/23 10:42:42;;;;;;;31.40;20.92;;;;;14.40;98309.00;;;;5071592;28;20048;-65
2023/02/23 10:45:18;;;;;;;33.35;22.33;;;;;14.60;98308.00;;;;5071595;28;20618;-64
2023/02/23 10:47:46;;;;;;;31.05;21.65;;;;;14.60;98309.00;;;;5071737;28;20040;-65
2023/02/23 10:50:13;;;;;;;29.98;21.45;;;;;14.50;98313.00;;;;5071337;28;20044;-65
2023/02/23 10:52:43;;;;;;;37.70;23.17;;;;;14.70;98315.00;;;;5071474;28;20044;-65
2023/02/23 10:55:44;;;;;;;31.73;21.08;;;;;14.80;98312.00;;;;5074510;28;20146;-64
2023/02/23 10:58:17;;;;;;;28.55;20.00;;;;;14.80;98311.00;;;;5039656;28;20057;-64
2023/02/23 11:01:02;;;;;;;29.90;21.88;;;;;14.90;98316.00;;;;5071560;28;20042;-65
2023/02/23 11:03:42;;;;;;;34.55;22.88;;;;;14.90;98305.00;;;;5070120;28;20139;-65
2023/02/23 11:06:31;;;;;;;31.25;21.40;;;;;15.00;98311.00;;;;5070862;28;20037;-64
2023/02/23 11:08:57;;;;;;;31.48;20.23;;;;;15.00;98306.00;;;;5071273;28;20052;-64
2023/02/23 11:11:27;;;;;;;29.95;19.75;;;;;15.10;98299.00;;;;5070347;28;20044;-64
2023/02/23 11:13:56;;;;;;;30.15;20.55;;;;;15.20;98303.00;;;;5071158;28;20082;-64
2023/02/23 11:16:29;;;;;;;32.42;19.85;;;;;15.20;98300.00;;;;5068945;28;20040;-63
2023/02/23 11:19:02;;;;;;;30.23;20.20;;;;;15.10;98313.00;;;;5071302;28;20499;-64
2023/02/23 11:21:32;;;;;;;28.43;19.97;;;;;15.20;98306.00;;;;5069601;28;20106;-64
2023/02/23 11:24:18;;;;;;;28.30;19.10;;;;;15.10;98309.00;;;;5070814;28;20048;-66
2023/02/23 11:26:47;;;;;;;27.83;19.90;;;;;15.10;98299.00;;;;5070142;28;20041;-65
2023/02/23 11:29:34;;;;;;;30.17;20.88;;;;;15.00;98296.00;;;;5070303;28;20056;-66
2023/02/23 11:32:18;;;;;;;34.10;21.80;;;;;15.00;98298.00;;;;5070496;28;20046;-65
2023/02/23 11:34:49;;;;;;;30.92;21.73;;;;;15.00;98294.00;;;;5069957;28;20052;-64
2023/02/23 11:37:16;;;;;;;34.55;22.65;;;;;15.00;98290.00;;;;5070239;28;20053;-66
2023/02/23 11:39:56;;;;;;;41.45;26.17;;;;;15.10;98292.00;;;;5070636;28;20086;-64
2023/02/23 11:42:33;;;;;;;29.90;19.23;;;;;15.00;98288.00;;;;5069318;28;20485;-64
2023/02/23 11:45:15;;;;;;;30.70;19.10;;;;;14.70;98292.00;;;;5069334;28;20386;-63
2023/02/23 11:47:57;;;;;;;35.92;23.20;;;;;14.70;98285.00;;;;5069705;28;20436;-65
2023/02/23 11:50:26;;;;;;;33.00;21.10;;;;;14.80;98280.00;;;;5070288;28;20570;-63
2023/02/23 11:53:04;;;;;;;35.55;21.73;;;;;14.80;98287.00;;;;5070275;28;20044;-62
2023/02/23 11:55:35;;;;;;;31.58;19.83;;;;;14.80;98281.00;;;;5069928;28;21292;-63
2023/02/23 11:58:26;;;;;;;31.40;19.33;;;;;14.90;98282.00;;;;5070048;28;20485;-64
2023/02/23 12:00:58;;;;;;;35.78;20.27;;;;;14.90;98279.00;;;;5070027;28;20036;-64
2023/02/23 12:03:27;;;;;;;31.15;19.42;;;;;14.90;98278.00;;;;5070135;28;20082;-63
2023/02/23 12:05:58;;;;;;;33.58;20.33;;;;;14.90;98275.00;;;;5069875;28;20047;-64
2023/02/23 12:08:32;;;;;;;32.25;19.17;;;;;14.90;98270.00;;;;5070557;28;20120;-64
2023/02/23 12:11:00;;;;;;;;;;;;;15.00;98272.00;;;;5072098;28;20067;-64
2023/02/23 12:13:36;;;;;;;33.53;19.63;;;;;15.10;98274.00;;;;5072625;28;19920;-64
2023/02/23 12:16:09;;;;;;;32.30;20.50;;;;;15.10;98257.00;;;;5070522;28;20036;-63
2023/02/23 12:18:40;;;;;;;34.13;18.65;;;;;15.00;98264.00;;;;5071800;28;20058;-63
2023/02/23 12:21:37;;;;;;;32.67;19.77;;;;;15.10;98258.00;;;;5069776;28;20044;-63
2023/02/23 12:24:09;;;;;;;25.15;17.20;;;;;15.10;98263.00;;;;5063721;28;20044;-64
2023/02/23 12:26:45;;;;;;;28.98;18.55;;;;;15.10;98258.00;;;;5068786;28;20037;-64
2023/02/23 12:29:22;;;;;;;26.02;17.00;;;;;15.00;98259.00;;;;5067577;28;20655;-63
2023/02/23 12:31:56;;;;;;;22.45;14.73;;;;;15.00;98258.00;;;;5064029;28;20119;-63
2023/02/23 12:34:34;;;;;;;21.65;13.65;;;;;15.10;98263.00;;;;5067053;28;20044;-69
2023/02/23 12:37:15;;;;;;;26.35;15.93;;;;;15.10;98255.00;;;;5064964;28;20619;-66
2023/02/23 12:39:45;;;;;;;27.17;16.80;;;;;15.10;98262.00;;;;5069608;28;20045;-64
2023/02/23 12:42:16;;;;;;;28.73;19.02;;;;;15.10;98257.00;;;;5069887;28;20029;-66
2023/02/23 12:44:52;;;;;;;28.33;17.92;;;;;15.20;98260.00;;;;5069150;28;20441;-66
2023/02/23 12:47:36;;;;;;;26.85;17.15;;;;;15.10;98264.00;;;;5068271;28;20048;-65
2023/02/23 12:50:12;;;;;;;21.48;13.40;;;;;15.00;98252.00;;;;5068570;28;20041;-65
2023/02/23 12:53:01;;;;;;;19.08;12.70;;;;;15.00;98260.00;;;;5068540;28;20170;-67
2023/02/23 12:55:38;;;;;;;16.98;11.07;;;;;15.10;98246.00;;;;5067514;28;20044;-66
2023/02/23 12:58:27;;;;;;;15.18;10.20;;;;;15.30;98243.00;;;;5067045;28;20053;-66
2023/02/23 13:01:04;;;;;;;19.55;12.30;;;;;15.30;98241.00;;;;5068904;28;20037;-67
2023/02/23 13:03:48;;;;;;;19.45;12.90;;;;;15.30;98246.00;;;;5068226;28;20114;-65
2023/02/23 13:06:20;;;;;;;19.30;13.05;;;;;15.30;98244.00;;;;5067781;28;20444;-65
2023/02/23 13:09:14;;;;;;;17.67;12.10;;;;;15.40;98248.00;;;;5069071;28;20056;-65
2023/02/23 13:11:59;;;;;;;21.95;11.82;;;;;15.30;98250.00;;;;5067789;28;20037;-64
2023/02/23 13:14:29;;;;;;;19.67;13.18;;;;;15.20;98260.00;;;;5066641;28;20390;-64
2023/02/23 13:17:01;;;;;;;22.20;14.60;;;;;15.20;98246.00;;;;5061695;28;20501;-65
2023/02/23 13:19:38;;;;;;;17.92;11.38;;;;;15.30;98246.00;;;;5065067;28;20053;-65
2023/02/23 13:22:23;;;;;;;16.70;11.07;;;;;15.30;98244.00;;;;5064806;28;20497;-63
2023/02/23 13:24:52;;;;;;;24.70;15.90;;;;;15.20;98249.00;;;;5067554;28;20124;-65
2023/02/23 13:27:24;;;;;;;26.25;16.42;;;;;15.20;98249.00;;;;5067860;28;20055;-64
2023/02/23 13:29:53;;;;;;;20.50;12.90;;;;;15.20;98244.00;;;;5068823;28;20060;-65
2023/02/23 13:32:23;;;;;;;14.55;11.18;;;;;15.10;98253.00;;;;5069124;28;20036;-65
2023/02/23 13:34:59;;;;;;;17.27;10.52;;;;;15.00;98246.00;;;;5068927;28;20040;-66
2023/02/23 13:37:46;;;;;;;14.82;10.27;;;;;15.00;98245.00;;;;5068268;28;20374;-65
2023/02/23 13:40:44;;;;;;;15.38;9.50;;;;;15.00;98245.00;;;;5069265;28;20070;-65